sensor_id;sensor_type;location;lat;lon;timestamp;pressure;altitude;pressure_sealevel;temperature;humidity
15670;BME280;18524;45.190;5.732;2023-08-12T00:01:39;99489.03;;;26.65;68.26
15670;BME280;18524;45.190;5.732;2023-08-12T00:06:30;99482.94;;;26.52;69.48
15670;BME280;18524;45.190;5.732;2023-08-12T00:11:20;99487.31;;;26.46;69.12
15670;BME280;18524;45.190;5.732;2023-08-12T00:16:10;99488.00;;;26.35;69.13
15670;BME280;18524;45.190;5.732;2023-08-12T00:21:01;99492.56;;;26.34;72.20
15670;BME280;18524;45.190;5.732;2023-08-12T00:25:51;99495.66;;;26.31;72.76
15670;BME280;18524;45.190;5.732;2023-08-12T00:30:42;99482.03;;;26.26;71.89
15670;BME280;18524;45.190;5.732;2023-08-12T00:35:32;99494.69;;;26.19;70.33
15670;BME280;18524;45.190;5.732;2023-08-12T00:40:22;99489.09;;;26.21;75.73
15670;BME280;18524;45.190;5.732;2023-08-12T00:45:14;99497.03;;;26.09;73.23
15670;BME280;18524;45.190;5.732;2023-08-12T00:50:06;99486.72;;;26.06;74.79
15670;BME280;18524;45.190;5.732;2023-08-12T00:54:58;99491.88;;;26.01;74.12
15670;BME280;18524;45.190;5.732;2023-08-12T00:59:49;99493.34;;;25.97;73.83
15670;BME280;18524;45.190;5.732;2023-08-12T01:04:39;99493.78;;;25.94;75.31
15670;BME280;18524;45.190;5.732;2023-08-12T01:09:30;99497.28;;;25.94;74.83
15670;BME280;18524;45.190;5.732;2023-08-12T01:19:39;99490.97;;;25.82;73.05
15670;BME280;18524;45.190;5.732;2023-08-12T01:24:38;99489.56;;;25.73;73.18
15670;BME280;18524;45.190;5.732;2023-08-12T01:29:29;99496.38;;;25.75;80.16
15670;BME280;18524;45.190;5.732;2023-08-12T01:34:29;99489.78;;;25.65;77.35
15670;BME280;18524;45.190;5.732;2023-08-12T01:39:23;99492.69;;;25.50;76.13
15670;BME280;18524;45.190;5.732;2023-08-12T01:44:14;99498.91;;;25.44;77.77
15670;BME280;18524;45.190;5.732;2023-08-12T01:49:04;99493.13;;;25.40;81.45
15670;BME280;18524;45.190;5.732;2023-08-12T01:53:54;99491.09;;;25.36;83.18
15670;BME280;18524;45.190;5.732;2023-08-12T01:58:45;99484.91;;;25.29;82.57
15670;BME280;18524;45.190;5.732;2023-08-12T02:03:35;99493.56;;;25.24;81.47
15670;BME280;18524;45.190;5.732;2023-08-12T02:08:25;99496.47;;;25.22;83.83
15670;BME280;18524;45.190;5.732;2023-08-12T02:13:16;99486.16;;;25.19;80.55
15670;BME280;18524;45.190;5.732;2023-08-12T02:18:06;99490.09;;;25.17;83.31
15670;BME280;18524;45.190;5.732;2023-08-12T02:22:57;99484.31;;;25.13;79.98
15670;BME280;18524;45.190;5.732;2023-08-12T02:27:47;99494.44;;;25.11;81.34
15670;BME280;18524;45.190;5.732;2023-08-12T02:32:37;99484.94;;;25.09;78.71
15670;BME280;18524;45.190;5.732;2023-08-12T02:37:28;99484.97;;;25.02;78.39
15670;BME280;18524;45.190;5.732;2023-08-12T02:42:18;99487.84;;;25.01;79.23
15670;BME280;18524;45.190;5.732;2023-08-12T02:47:08;99483.72;;;24.98;78.31
15670;BME280;18524;45.190;5.732;2023-08-12T02:51:59;99483.06;;;24.96;76.87
15670;BME280;18524;45.190;5.732;2023-08-12T02:56:52;99485.56;;;24.98;77.56
15670;BME280;18524;45.190;5.732;2023-08-12T03:01:42;99491.09;;;24.89;77.97
15670;BME280;18524;45.190;5.732;2023-08-12T03:06:33;99491.34;;;24.75;81.61
15670;BME280;18524;45.190;5.732;2023-08-12T03:11:23;99491.13;;;24.70;83.61
15670;BME280;18524;45.190;5.732;2023-08-12T03:16:14;99498.16;;;24.64;87.13
15670;BME280;18524;45.190;5.732;2023-08-12T03:21:08;99489.06;;;24.58;88.48
15670;BME280;18524;45.190;5.732;2023-08-12T03:25:59;99479.38;;;24.57;90.44
15670;BME280;18524;45.190;5.732;2023-08-12T03:30:53;99480.81;;;24.53;87.80
15670;BME280;18524;45.190;5.732;2023-08-12T03:35:48;99488.84;;;24.47;88.35
15670;BME280;18524;45.190;5.732;2023-08-12T03:40:39;99481.81;;;24.39;84.78
15670;BME280;18524;45.190;5.732;2023-08-12T03:45:29;99483.63;;;24.25;85.79
15670;BME280;18524;45.190;5.732;2023-08-12T03:50:19;99490.22;;;24.23;87.71
15670;BME280;18524;45.190;5.732;2023-08-12T03:55:10;99477.84;;;24.22;90.03
15670;BME280;18524;45.190;5.732;2023-08-12T04:00:00;99487.34;;;24.24;86.20
15670;BME280;18524;45.190;5.732;2023-08-12T04:04:51;99481.16;;;24.17;89.03
15670;BME280;18524;45.190;5.732;2023-08-12T04:09:41;99479.88;;;24.07;84.60
15670;BME280;18524;45.190;5.732;2023-08-12T04:14:31;99478.19;;;23.92;87.00
15670;BME280;18524;45.190;5.732;2023-08-12T04:19:22;99483.09;;;23.82;86.55
15670;BME280;18524;45.190;5.732;2023-08-12T04:24:12;99480.22;;;23.84;88.85
15670;BME280;18524;45.190;5.732;2023-08-12T04:29:03;99473.63;;;23.86;90.87
15670;BME280;18524;45.190;5.732;2023-08-12T04:33:53;99470.56;;;23.89;91.82
15670;BME280;18524;45.190;5.732;2023-08-12T04:38:44;99471.97;;;23.85;87.94
15670;BME280;18524;45.190;5.732;2023-08-12T04:43:34;99478.59;;;23.89;88.78
15670;BME280;18524;45.190;5.732;2023-08-12T04:48:24;99472.41;;;23.89;90.36
15670;BME280;18524;45.190;5.732;2023-08-12T04:53:15;99476.53;;;23.91;91.61
15670;BME280;18524;45.190;5.732;2023-08-12T04:58:05;99477.56;;;23.90;90.78
15670;BME280;18524;45.190;5.732;2023-08-12T05:02:55;99473.84;;;23.91;90.69
15670;BME280;18524;45.190;5.732;2023-08-12T05:07:46;99474.69;;;23.98;93.03
15670;BME280;18524;45.190;5.732;2023-08-12T05:12:39;99477.63;;;24.17;91.59
15670;BME280;18524;45.190;5.732;2023-08-12T05:17:29;99482.03;;;24.38;86.24
15670;BME280;18524;45.190;5.732;2023-08-12T05:22:19;99468.03;;;24.62;80.13
15670;BME280;18524;45.190;5.732;2023-08-12T05:27:10;99470.50;;;24.77;82.83
15670;BME280;18524;45.190;5.732;2023-08-12T05:32:00;99472.53;;;24.81;82.94
15670;BME280;18524;45.190;5.732;2023-08-12T05:36:50;99481.63;;;25.13;80.06
15670;BME280;18524;45.190;5.732;2023-08-12T05:41:41;99477.91;;;25.14;78.82
15670;BME280;18524;45.190;5.732;2023-08-12T05:46:32;99481.31;;;25.68;75.28
15670;BME280;18524;45.190;5.732;2023-08-12T05:51:22;99495.44;;;25.95;74.40
15670;BME280;18524;45.190;5.732;2023-08-12T05:56:13;99493.78;;;25.94;73.63
15670;BME280;18524;45.190;5.732;2023-08-12T06:01:03;99494.03;;;25.85;74.08
15670;BME280;18524;45.190;5.732;2023-08-12T06:05:53;99497.25;;;26.45;70.88
15670;BME280;18524;45.190;5.732;2023-08-12T06:10:44;99499.41;;;27.12;67.72
15670;BME280;18524;45.190;5.732;2023-08-12T06:15:34;99498.50;;;26.99;66.74
15670;BME280;18524;45.190;5.732;2023-08-12T06:20:25;99502.13;;;26.24;70.86
15670;BME280;18524;45.190;5.732;2023-08-12T06:25:15;99506.47;;;25.80;73.71
15670;BME280;18524;45.190;5.732;2023-08-12T06:30:06;99512.16;;;25.39;76.11
15670;BME280;18524;45.190;5.732;2023-08-12T06:34:56;99506.38;;;25.22;78.39
15670;BME280;18524;45.190;5.732;2023-08-12T06:39:47;99515.50;;;25.14;79.53
15670;BME280;18524;45.190;5.732;2023-08-12T06:44:37;99511.78;;;25.09;79.65
15670;BME280;18524;45.190;5.732;2023-08-12T06:49:28;99511.56;;;24.97;80.01
15670;BME280;18524;45.190;5.732;2023-08-12T06:54:18;99509.91;;;24.96;79.31
15670;BME280;18524;45.190;5.732;2023-08-12T06:59:08;99511.75;;;24.89;79.43
15670;BME280;18524;45.190;5.732;2023-08-12T07:03:59;99506.44;;;25.02;79.88
15670;BME280;18524;45.190;5.732;2023-08-12T07:08:49;99510.53;;;25.18;79.88
15670;BME280;18524;45.190;5.732;2023-08-12T07:13:40;99502.84;;;26.06;74.75
15670;BME280;18524;45.190;5.732;2023-08-12T07:18:30;99505.72;;;26.74;66.65
15670;BME280;18524;45.190;5.732;2023-08-12T07:23:21;99498.09;;;27.39;65.49
15670;BME280;18524;45.190;5.732;2023-08-12T07:28:11;99497.97;;;28.19;63.08
15670;BME280;18524;45.190;5.732;2023-08-12T07:33:02;99507.13;;;29.01;59.14
15670;BME280;18524;45.190;5.732;2023-08-12T07:37:52;99499.75;;;29.72;56.80
15670;BME280;18524;45.190;5.732;2023-08-12T07:42:43;99495.88;;;30.20;54.88
15670;BME280;18524;45.190;5.732;2023-08-12T07:47:33;99500.88;;;30.11;53.39
15670;BME280;18524;45.190;5.732;2023-08-12T07:52:23;99499.66;;;29.78;54.17
15670;BME280;18524;45.190;5.732;2023-08-12T07:57:14;99495.47;;;29.24;57.11
15670;BME280;18524;45.190;5.732;2023-08-12T08:02:04;99501.03;;;29.06;57.90
15670;BME280;18524;45.190;5.732;2023-08-12T08:06:54;99501.44;;;28.68;59.94
15670;BME280;18524;45.190;5.732;2023-08-12T08:11:45;99490.28;;;28.64;59.42
15670;BME280;18524;45.190;5.732;2023-08-12T08:16:35;99501.75;;;28.59;59.55
15670;BME280;18524;45.190;5.732;2023-08-12T08:21:26;99507.06;;;28.78;59.55
15670;BME280;18524;45.190;5.732;2023-08-12T08:26:17;99500.28;;;29.22;58.25
15670;BME280;18524;45.190;5.732;2023-08-12T08:31:07;99493.63;;;29.13;58.26
15670;BME280;18524;45.190;5.732;2023-08-12T08:35:57;99491.13;;;29.23;57.39
15670;BME280;18524;45.190;5.732;2023-08-12T08:40:51;99486.09;;;29.90;55.94
15670;BME280;18524;45.190;5.732;2023-08-12T08:45:43;99493.09;;;30.93;52.55
15670;BME280;18524;45.190;5.732;2023-08-12T08:50:35;99487.31;;;31.62;49.56
15670;BME280;18524;45.190;5.732;2023-08-12T08:55:27;99481.91;;;32.11;47.33
15670;BME280;18524;45.190;5.732;2023-08-12T09:00:18;99477.03;;;32.35;46.18
15670;BME280;18524;45.190;5.732;2023-08-12T09:05:09;99480.00;;;32.70;44.65
15670;BME280;18524;45.190;5.732;2023-08-12T09:10:00;99484.09;;;33.05;43.52
15670;BME280;18524;45.190;5.732;2023-08-12T09:14:51;99473.50;;;33.45;42.59
15670;BME280;18524;45.190;5.732;2023-08-12T09:19:42;99472.31;;;33.83;41.46
15670;BME280;18524;45.190;5.732;2023-08-12T09:24:32;99476.16;;;34.08;41.03
15670;BME280;18524;45.190;5.732;2023-08-12T09:29:23;99472.16;;;34.36;39.52
15670;BME280;18524;45.190;5.732;2023-08-12T09:34:14;99466.97;;;34.55;38.34
15670;BME280;18524;45.190;5.732;2023-08-12T09:39:08;99465.63;;;34.72;36.98
15670;BME280;18524;45.190;5.732;2023-08-12T09:44:01;99460.72;;;35.00;37.07
15670;BME280;18524;45.190;5.732;2023-08-12T09:48:52;99448.34;;;35.23;37.11
15670;BME280;18524;45.190;5.732;2023-08-12T09:53:47;99447.44;;;35.58;35.97
15670;BME280;18524;45.190;5.732;2023-08-12T09:58:39;99440.81;;;35.74;35.47
15670;BME280;18524;45.190;5.732;2023-08-12T10:03:32;99435.25;;;35.94;34.81
15670;BME280;18524;45.190;5.732;2023-08-12T10:08:23;99432.00;;;36.26;34.08
15670;BME280;18524;45.190;5.732;2023-08-12T10:13:14;99419.31;;;36.46;33.58
15670;BME280;18524;45.190;5.732;2023-08-12T10:18:05;99418.78;;;36.73;33.68
15670;BME280;18524;45.190;5.732;2023-08-12T10:22:59;99410.28;;;37.03;33.41
15670;BME280;18524;45.190;5.732;2023-08-12T10:27:49;99397.22;;;37.24;33.55
15670;BME280;18524;45.190;5.732;2023-08-12T10:32:40;99384.88;;;37.45;34.19
15670;BME280;18524;45.190;5.732;2023-08-12T10:37:32;99382.03;;;37.55;33.57
15670;BME280;18524;45.190;5.732;2023-08-12T10:42:46;99377.94;;;37.91;33.22
15670;BME280;18524;45.190;5.732;2023-08-12T10:48:29;99363.56;;;38.17;32.87
15670;BME280;18524;45.190;5.732;2023-08-12T10:52:54;99359.47;;;38.66;32.24
15670;BME280;18524;45.190;5.732;2023-08-12T10:57:45;99348.78;;;38.78;32.19
15670;BME280;18524;45.190;5.732;2023-08-12T11:02:37;99341.34;;;38.93;30.63
15670;BME280;18524;45.190;5.732;2023-08-12T11:07:41;99346.34;;;39.18;30.49
15670;BME280;18524;45.190;5.732;2023-08-12T11:12:35;99333.38;;;39.46;28.54
15670;BME280;18524;45.190;5.732;2023-08-12T11:17:33;99329.06;;;38.90;29.29
15670;BME280;18524;45.190;5.732;2023-08-12T11:22:24;99321.34;;;38.92;29.62
15670;BME280;18524;45.190;5.732;2023-08-12T11:27:15;99305.25;;;39.41;29.60
15670;BME280;18524;45.190;5.732;2023-08-12T11:32:05;99299.44;;;39.78;28.69
15670;BME280;18524;45.190;5.732;2023-08-12T11:36:57;99303.44;;;39.94;29.09
15670;BME280;18524;45.190;5.732;2023-08-12T11:41:48;99291.81;;;39.97;27.92
15670;BME280;18524;45.190;5.732;2023-08-12T11:46:38;99300.19;;;40.15;27.40
15670;BME280;18524;45.190;5.732;2023-08-12T11:51:29;99294.19;;;40.44;27.30
15670;BME280;18524;45.190;5.732;2023-08-12T11:56:19;99272.00;;;40.09;27.94
15670;BME280;18524;45.190;5.732;2023-08-12T12:01:10;99279.44;;;39.86;26.96
15670;BME280;18524;45.190;5.732;2023-08-12T12:06:00;99276.25;;;39.93;26.05
15670;BME280;18524;45.190;5.732;2023-08-12T12:10:54;99268.56;;;40.04;26.77
15670;BME280;18524;45.190;5.732;2023-08-12T12:15:45;99272.19;;;39.68;27.36
15670;BME280;18524;45.190;5.732;2023-08-12T12:20:35;99262.97;;;39.28;28.32
15670;BME280;18524;45.190;5.732;2023-08-12T12:25:25;99267.94;;;38.76;28.72
15670;BME280;18524;45.190;5.732;2023-08-12T12:30:16;99272.16;;;38.27;28.90
15670;BME280;18524;45.190;5.732;2023-08-12T12:35:07;99253.81;;;37.95;30.08
15670;BME280;18524;45.190;5.732;2023-08-12T12:39:57;99264.03;;;37.90;31.18
15670;BME280;18524;45.190;5.732;2023-08-12T12:44:48;99259.56;;;38.26;30.83
15670;BME280;18524;45.190;5.732;2023-08-12T12:49:39;99259.63;;;38.67;29.98
15670;BME280;18524;45.190;5.732;2023-08-12T12:54:31;99258.16;;;39.11;29.29
15670;BME280;18524;45.190;5.732;2023-08-12T12:59:21;99255.97;;;39.58;27.68
15670;BME280;18524;45.190;5.732;2023-08-12T13:04:12;99255.22;;;39.88;27.78
15670;BME280;18524;45.190;5.732;2023-08-12T13:09:02;99245.50;;;39.60;27.90
15670;BME280;18524;45.190;5.732;2023-08-12T13:13:53;99254.41;;;39.07;28.84
15670;BME280;18524;45.190;5.732;2023-08-12T13:18:45;99254.72;;;38.51;29.98
15670;BME280;18524;45.190;5.732;2023-08-12T13:23:36;99250.47;;;38.31;29.18
15670;BME280;18524;45.190;5.732;2023-08-12T13:28:26;99242.53;;;38.43;30.31
15670;BME280;18524;45.190;5.732;2023-08-12T13:33:16;99236.00;;;38.94;28.88
15670;BME280;18524;45.190;5.732;2023-08-12T13:38:07;99229.50;;;39.03;28.70
15670;BME280;18524;45.190;5.732;2023-08-12T13:42:57;99232.72;;;39.19;29.11
15670;BME280;18524;45.190;5.732;2023-08-12T13:47:47;99240.44;;;39.17;28.48
15670;BME280;18524;45.190;5.732;2023-08-12T13:52:38;99243.22;;;38.90;28.38
15670;BME280;18524;45.190;5.732;2023-08-12T13:57:28;99240.00;;;38.33;28.26
15670;BME280;18524;45.190;5.732;2023-08-12T14:02:18;99243.38;;;37.97;30.02
15670;BME280;18524;45.190;5.732;2023-08-12T14:07:09;99248.72;;;37.56;28.38
15670;BME280;18524;45.190;5.732;2023-08-12T14:11:59;99245.50;;;37.49;28.54
15670;BME280;18524;45.190;5.732;2023-08-12T14:16:51;99234.41;;;37.59;28.40
15670;BME280;18524;45.190;5.732;2023-08-12T14:21:41;99232.63;;;37.49;28.17
15670;BME280;18524;45.190;5.732;2023-08-12T14:26:31;99222.81;;;37.48;26.92
15670;BME280;18524;45.190;5.732;2023-08-12T14:31:22;99228.19;;;37.53;26.70
15670;BME280;18524;45.190;5.732;2023-08-12T14:36:12;99218.44;;;37.47;27.54
15670;BME280;18524;45.190;5.732;2023-08-12T14:41:03;99222.53;;;37.31;27.44
15670;BME280;18524;45.190;5.732;2023-08-12T14:45:53;99214.09;;;36.90;28.13
15670;BME280;18524;45.190;5.732;2023-08-12T14:50:44;99208.78;;;36.75;28.00
15670;BME280;18524;45.190;5.732;2023-08-12T14:55:35;99210.72;;;36.74;28.14
15670;BME280;18524;45.190;5.732;2023-08-12T15:00:25;99209.03;;;36.78;28.26
15670;BME280;18524;45.190;5.732;2023-08-12T15:05:16;99202.28;;;36.71;29.80
15670;BME280;18524;45.190;5.732;2023-08-12T15:10:07;99198.38;;;36.77;28.12
15670;BME280;18524;45.190;5.732;2023-08-12T15:14:58;99198.06;;;36.59;29.80
15670;BME280;18524;45.190;5.732;2023-08-12T15:19:49;99188.47;;;36.38;29.55
15670;BME280;18524;45.190;5.732;2023-08-12T15:24:39;99194.75;;;36.15;29.63
15670;BME280;18524;45.190;5.732;2023-08-12T15:29:30;99189.22;;;35.96;30.08
15670;BME280;18524;45.190;5.732;2023-08-12T15:34:20;99187.00;;;35.69;30.97
15670;BME280;18524;45.190;5.732;2023-08-12T15:39:11;99190.75;;;35.44;30.76
15670;BME280;18524;45.190;5.732;2023-08-12T15:44:01;99182.09;;;35.32;31.74
15670;BME280;18524;45.190;5.732;2023-08-12T15:48:51;99180.56;;;35.16;32.07
15670;BME280;18524;45.190;5.732;2023-08-12T15:53:42;99184.50;;;34.99;32.31
15670;BME280;18524;45.190;5.732;2023-08-12T15:58:32;99184.97;;;35.12;34.65
15670;BME280;18524;45.190;5.732;2023-08-12T16:03:23;99172.28;;;34.92;35.57
15670;BME280;18524;45.190;5.732;2023-08-12T16:08:13;99174.72;;;34.93;35.70
15670;BME280;18524;45.190;5.732;2023-08-12T16:13:04;99172.91;;;34.73;35.44
15670;BME280;18524;45.190;5.732;2023-08-12T16:17:54;99174.34;;;34.61;36.08
15670;BME280;18524;45.190;5.732;2023-08-12T16:22:45;99173.25;;;34.62;36.25
15670;BME280;18524;45.190;5.732;2023-08-12T16:27:36;99178.19;;;34.49;36.62
15670;BME280;18524;45.190;5.732;2023-08-12T16:32:26;99181.19;;;34.53;35.20
15670;BME280;18524;45.190;5.732;2023-08-12T16:37:16;99181.44;;;34.57;34.77
15670;BME280;18524;45.190;5.732;2023-08-12T16:42:07;99164.56;;;34.49;35.19
15670;BME280;18524;45.190;5.732;2023-08-12T16:46:57;99164.28;;;34.51;34.96
15670;BME280;18524;45.190;5.732;2023-08-12T16:51:48;99168.41;;;34.48;35.92
15670;BME280;18524;45.190;5.732;2023-08-12T16:56:38;99161.56;;;34.51;35.29
15670;BME280;18524;45.190;5.732;2023-08-12T17:01:28;99164.59;;;34.44;35.71
15670;BME280;18524;45.190;5.732;2023-08-12T17:06:19;99158.38;;;34.29;36.62
15670;BME280;18524;45.190;5.732;2023-08-12T17:11:09;99158.16;;;34.20;36.61
15670;BME280;18524;45.190;5.732;2023-08-12T17:16:00;99161.75;;;34.00;36.74
15670;BME280;18524;45.190;5.732;2023-08-12T17:20:50;99162.56;;;33.80;37.85
15670;BME280;18524;45.190;5.732;2023-08-12T17:25:42;99161.75;;;33.70;38.31
15670;BME280;18524;45.190;5.732;2023-08-12T17:30:32;99165.31;;;33.60;38.81
15670;BME280;18524;45.190;5.732;2023-08-12T17:35:25;99160.97;;;33.49;39.01
15670;BME280;18524;45.190;5.732;2023-08-12T17:40:15;99164.78;;;33.33;39.37
15670;BME280;18524;45.190;5.732;2023-08-12T17:45:12;99159.34;;;33.33;39.19
15670;BME280;18524;45.190;5.732;2023-08-12T17:50:02;99157.69;;;33.26;38.46
15670;BME280;18524;45.190;5.732;2023-08-12T17:54:53;99148.44;;;33.28;39.09
15670;BME280;18524;45.190;5.732;2023-08-12T17:59:43;99162.03;;;33.12;39.84
15670;BME280;18524;45.190;5.732;2023-08-12T18:04:34;99164.16;;;33.00;40.43
15670;BME280;18524;45.190;5.732;2023-08-12T18:09:24;99167.41;;;32.87;41.57
15670;BME280;18524;45.190;5.732;2023-08-12T18:14:14;99174.44;;;32.78;41.58
15670;BME280;18524;45.190;5.732;2023-08-12T18:19:05;99174.09;;;32.59;42.15
15670;BME280;18524;45.190;5.732;2023-08-12T18:23:55;99174.56;;;32.41;42.52
15670;BME280;18524;45.190;5.732;2023-08-12T18:28:45;99171.78;;;32.30;44.86
15670;BME280;18524;45.190;5.732;2023-08-12T18:33:36;99170.34;;;32.18;44.72
15670;BME280;18524;45.190;5.732;2023-08-12T18:38:26;99177.09;;;32.05;45.04
15670;BME280;18524;45.190;5.732;2023-08-12T18:43:16;99175.38;;;31.94;45.10
15670;BME280;18524;45.190;5.732;2023-08-12T18:48:07;99179.66;;;31.85;45.75
15670;BME280;18524;45.190;5.732;2023-08-12T18:52:57;99190.72;;;31.73;47.44
15670;BME280;18524;45.190;5.732;2023-08-12T18:57:49;99191.44;;;31.63;47.18
15670;BME280;18524;45.190;5.732;2023-08-12T19:02:40;99187.00;;;31.57;46.91
15670;BME280;18524;45.190;5.732;2023-08-12T19:07:31;99195.91;;;31.48;48.87
15670;BME280;18524;45.190;5.732;2023-08-12T19:12:21;99203.38;;;31.35;49.77
15670;BME280;18524;45.190;5.732;2023-08-12T19:17:12;99205.19;;;31.25;50.31
15670;BME280;18524;45.190;5.732;2023-08-12T19:22:02;99213.44;;;31.13;50.83
15670;BME280;18524;45.190;5.732;2023-08-12T19:26:53;99220.91;;;31.01;52.00
15670;BME280;18524;45.190;5.732;2023-08-12T19:31:43;99225.09;;;30.87;52.38
15670;BME280;18524;45.190;5.732;2023-08-12T19:36:34;99230.88;;;30.73;51.35
15670;BME280;18524;45.190;5.732;2023-08-12T19:41:24;99237.00;;;30.64;50.44
15670;BME280;18524;45.190;5.732;2023-08-12T19:46:15;99238.22;;;30.56;52.49
15670;BME280;18524;45.190;5.732;2023-08-12T19:51:05;99245.94;;;30.47;53.09
15670;BME280;18524;45.190;5.732;2023-08-12T19:55:55;99256.13;;;30.40;54.00
15670;BME280;18524;45.190;5.732;2023-08-12T20:00:46;99257.56;;;30.26;52.94
15670;BME280;18524;45.190;5.732;2023-08-12T20:05:36;99262.28;;;30.14;54.37
15670;BME280;18524;45.190;5.732;2023-08-12T20:10:27;99272.66;;;30.05;53.03
15670;BME280;18524;45.190;5.732;2023-08-12T20:15:17;99280.59;;;29.95;55.12
15670;BME280;18524;45.190;5.732;2023-08-12T20:20:09;99271.25;;;29.86;56.64
15670;BME280;18524;45.190;5.732;2023-08-12T20:25:02;99283.06;;;29.80;57.00
15670;BME280;18524;45.190;5.732;2023-08-12T20:29:52;99295.09;;;29.72;58.51
15670;BME280;18524;45.190;5.732;2023-08-12T20:34:42;99292.78;;;29.64;59.27
15670;BME280;18524;45.190;5.732;2023-08-12T20:39:33;99286.97;;;29.55;59.81
15670;BME280;18524;45.190;5.732;2023-08-12T20:44:23;99299.25;;;29.46;59.21
15670;BME280;18524;45.190;5.732;2023-08-12T20:49:14;99293.59;;;29.36;58.25
15670;BME280;18524;45.190;5.732;2023-08-12T20:54:04;99291.78;;;29.25;59.47
15670;BME280;18524;45.190;5.732;2023-08-12T20:58:55;99287.56;;;29.17;59.15
15670;BME280;18524;45.190;5.732;2023-08-12T21:03:45;99292.06;;;29.12;61.33
15670;BME280;18524;45.190;5.732;2023-08-12T21:08:35;99295.50;;;29.07;61.60
15670;BME280;18524;45.190;5.732;2023-08-12T21:13:26;99299.50;;;29.05;62.35
15670;BME280;18524;45.190;5.732;2023-08-12T21:18:16;99304.81;;;29.00;63.29
15670;BME280;18524;45.190;5.732;2023-08-12T21:23:07;99313.84;;;28.93;64.11
15670;BME280;18524;45.190;5.732;2023-08-12T21:27:57;99314.78;;;28.87;64.58
15670;BME280;18524;45.190;5.732;2023-08-12T21:32:48;99316.78;;;28.80;63.13
15670;BME280;18524;45.190;5.732;2023-08-12T21:37:38;99322.78;;;28.71;62.96
15670;BME280;18524;45.190;5.732;2023-08-12T21:42:28;99326.88;;;28.61;62.15
15670;BME280;18524;45.190;5.732;2023-08-12T21:47:19;99331.59;;;28.54;62.27
15670;BME280;18524;45.190;5.732;2023-08-12T21:52:09;99330.75;;;28.54;63.67
15670;BME280;18524;45.190;5.732;2023-08-12T21:56:59;99331.94;;;28.46;63.04
15670;BME280;18524;45.190;5.732;2023-08-12T22:01:50;99324.09;;;28.45;62.90
15670;BME280;18524;45.190;5.732;2023-08-12T22:06:40;99334.75;;;28.40;62.43
15670;BME280;18524;45.190;5.732;2023-08-12T22:11:30;99327.59;;;28.33;64.48
15670;BME280;18524;45.190;5.732;2023-08-12T22:16:21;99332.66;;;28.30;65.33
15670;BME280;18524;45.190;5.732;2023-08-12T22:21:12;99331.47;;;28.26;66.22
15670;BME280;18524;45.190;5.732;2023-08-12T22:26:03;99331.31;;;28.21;65.38
15670;BME280;18524;45.190;5.732;2023-08-12T22:30:53;99330.84;;;28.12;66.58
15670;BME280;18524;45.190;5.732;2023-08-12T22:35:44;99333.75;;;28.11;67.26
15670;BME280;18524;45.190;5.732;2023-08-12T22:40:34;99324.16;;;28.03;67.02
15670;BME280;18524;45.190;5.732;2023-08-12T22:45:25;99334.22;;;27.96;68.05
15670;BME280;18524;45.190;5.732;2023-08-12T22:50:15;99331.63;;;27.89;68.01
15670;BME280;18524;45.190;5.732;2023-08-12T22:55:06;99319.63;;;27.85;67.34
15670;BME280;18524;45.190;5.732;2023-08-12T22:59:56;99328.78;;;27.84;66.27
15670;BME280;18524;45.190;5.732;2023-08-12T23:04:47;99323.50;;;27.78;66.30
15670;BME280;18524;45.190;5.732;2023-08-12T23:09:37;99325.59;;;27.76;66.80
15670;BME280;18524;45.190;5.732;2023-08-12T23:14:27;99332.75;;;27.70;67.73
15670;BME280;18524;45.190;5.732;2023-08-12T23:19:18;99331.19;;;27.62;66.94
15670;BME280;18524;45.190;5.732;2023-08-12T23:24:08;99336.44;;;27.57;67.61
15670;BME280;18524;45.190;5.732;2023-08-12T23:28:59;99342.28;;;27.54;68.75
15670;BME280;18524;45.190;5.732;2023-08-12T23:33:49;99337.94;;;27.53;70.41
15670;BME280;18524;45.190;5.732;2023-08-12T23:38:39;99343.03;;;27.43;72.35
15670;BME280;18524;45.190;5.732;2023-08-12T23:43:30;99341.84;;;27.39;72.34
15670;BME280;18524;45.190;5.732;2023-08-12T23:48:20;99335.72;;;27.32;72.51
15670;BME280;18524;45.190;5.732;2023-08-12T23:53:11;99338.16;;;27.22;72.91
15670;BME280;18524;45.190;5.732;2023-08-12T23:58:01;99338.59;;;27.19;71.30
